Terminal Aerodrome Forecast
Issued by NWS

Home | Current Version | Previous Version | Text Only | Print | Product List | Glossary On
Versions: 1 2 3 4 5 6 7 8 9 10 11 12 13 14 15 16 17 18 19 20 21 22 23 24 25 26 27 28 29 30 31 32 33 34 35 36 37 38
000
FTUS46 KPQR 201137
TAFONP
TAF
KONP 201137Z 2012/2112 19019G34KT 3SM RA BR SCT008 BKN012 OVC020
     FM202000 20024G40KT 3SM RA BR SCT008 BKN010 OVC025
     FM210400 23022G33KT 6SM -RA BKN008 OVC020=

USA.gov is the U.S. government's official web portal to all federal, state and local government web resources and services.